Edmonton International Airport
CYEG : rendu visible

Aérodrome :











RETROUVEZ-NOUS SUR...

 
LOGIN :

S'inscrire | Disclaimer

   EN    FR    IT 

 









Légende :    VFR   VFR Marginal   IFR   IFR Intensif   IFR Très Intensif
Visi : 
Plafond : 
>= 8 km
>= 3000ft
5 à 8 km
1000 à 3000 ft
1500m à 5 km
500 à 1000 ft
800 à 1500m
200 à 500 ft
< 800m
< 200 ft
Symboles :   Orages  Brouillard  Fortes neiges  Fortes précipitations  Vent > 20 kt






- Altitude de l'aérodrome : 2373 ft
- Code IATA : YEG


CYEG - Edmonton International

DERNIER METAR :
  • 081200Z 27007KT 20SM FEW080 M07/M13 A3018 RMK AC1 AC TR SLP262

METARs EXPIRÉS :
  • 081100Z 27009KT 20SM FEW080 M06/M12 A3017 RMK AC1 AC TR SLP254
  • 081000Z 27011KT 20SM FEW080 M06/M12 A3014 RMK AC1 AC TR SLP246

TAF TAF CYEG
Valide du 08 à 12h jusqu'au 09 à 12h UTC


081142Z 0812/0912 29010KT P6SM FEW080
FM081800 30012G22KT P6SM FEW030 SCT200
BECMG 0822/0824 30008KT
FM090800 17010KT P6SM BKN080 OVC200 RMK NXT FCST BY 081500Z



MET'MAP, la Météo Aéronautique d'un coup d'oeil ! - Copyright ORBIFLY Décembre 2007 - Disclaimer

ORBIFLY MET'MAP TEAM :

Programmation & Développement : Alexandra Zaïnal
Sur une idée originale de : Baudouin d'Aumeries
Assistance à la programmation : Marc-Olivier Méhu
Soutien technique & logistique : Manuel Goepfert

Contact : metmap@orbifly.com




SOURCES & CREDITS :

   NOAA       Earth
Advisory